createdAt,value
2022-09-30T00:00:29.835Z,9.40
2022-09-30T00:01:51.683Z,9.80
2022-09-30T00:02:53.969Z,9.20
2022-09-30T00:03:56.927Z,10.00
2022-09-30T00:05:00.690Z,9.70
2022-09-30T00:06:08.407Z,9.10
2022-09-30T00:07:10.839Z,9.60
2022-09-30T00:08:12.751Z,9.20
2022-09-30T00:09:14.979Z,10.10
2022-09-30T00:10:17.029Z,10.00
2022-09-30T00:11:21.719Z,9.30
2022-09-30T00:12:23.759Z,9.40
2022-09-30T00:13:25.992Z,9.10
2022-09-30T00:14:27.661Z,9.40
2022-09-30T00:15:29.355Z,9.30
2022-09-30T00:16:34.079Z,9.50
2022-09-30T00:17:35.937Z,9.30
2022-09-30T00:18:38.981Z,9.40
2022-09-30T00:19:40.730Z,9.10
2022-09-30T00:20:42.397Z,9.30
2022-09-30T00:21:44.780Z,9.90
2022-09-30T00:22:47.074Z,9.40
2022-09-30T00:23:48.945Z,9.60
2022-09-30T00:24:50.604Z,9.60
2022-09-30T00:26:01.911Z,10.10
2022-09-30T00:27:03.759Z,9.40
2022-09-30T00:28:07.306Z,9.10
2022-09-30T00:29:09.467Z,10.10
2022-09-30T00:30:11.298Z,9.90
2022-09-30T00:31:15.912Z,10.00
2022-09-30T00:32:17.650Z,10.10
2022-09-30T00:33:19.287Z,9.80
2022-09-30T00:34:21.387Z,9.60
2022-09-30T00:35:23.305Z,9.40
2022-09-30T00:36:24.933Z,9.30
2022-09-30T00:37:26.662Z,9.20
2022-09-30T00:38:29.400Z,10.90
2022-09-30T00:39:31.165Z,10.20
2022-09-30T00:40:33.022Z,9.60
2022-09-30T00:41:35.481Z,9.20
2022-09-30T00:42:40.156Z,10.50
2022-09-30T00:43:44.898Z,10.10
2022-09-30T00:44:52.908Z,10.90
2022-09-30T00:45:58.890Z,9.70
2022-09-30T00:47:00.633Z,9.80
2022-09-30T00:48:19.188Z,9.40
2022-09-30T00:49:25.326Z,10.10
2022-09-30T00:50:46.176Z,9.70
2022-09-30T00:51:53.339Z,9.60
2022-09-30T00:53:07.523Z,9.70
2022-09-30T00:54:20.951Z,9.20
2022-09-30T00:55:30.751Z,9.20
2022-09-30T00:56:50.634Z,9.70
2022-09-30T00:57:53.140Z,9.80
2022-09-30T00:59:21.893Z,10.60
2022-09-30T01:00:24.104Z,9.70
2022-09-30T01:01:26.067Z,10.40
2022-09-30T01:02:28.016Z,9.80
2022-09-30T01:03:33.124Z,9.00
2022-09-30T01:04:36.343Z,9.40
2022-09-30T01:05:38.023Z,9.80
2022-09-30T01:06:40.742Z,10.00
2022-09-30T01:07:42.933Z,10.10
2022-09-30T01:08:45.937Z,10.50
2022-09-30T01:09:48.810Z,10.20
2022-09-30T01:10:50.589Z,10.00
2022-09-30T01:11:52.775Z,10.60
2022-09-30T01:12:55.525Z,9.60
2022-09-30T01:14:20.845Z,10.70
2022-09-30T01:15:34.990Z,9.70
2022-09-30T01:16:39.739Z,9.10
2022-09-30T01:17:58.028Z,10.10
2022-09-30T01:19:18.248Z,9.80
2022-09-30T01:20:38.480Z,10.10
2022-09-30T01:22:01.572Z,10.10
2022-09-30T01:23:23.490Z,9.80
2022-09-30T01:24:51.158Z,9.80
2022-09-30T01:26:14.339Z,9.20
2022-09-30T01:27:31.165Z,10.20
2022-09-30T01:28:54.663Z,10.00
2022-09-30T01:29:56.300Z,10.50
2022-09-30T01:33:06.496Z,10.00
2022-09-30T01:34:52.687Z,9.60
2022-09-30T01:35:57.047Z,9.90
2022-09-30T01:37:24.879Z,10.10
2022-09-30T01:38:35.714Z,10.80
2022-09-30T01:40:09.041Z,10.30
2022-09-30T01:41:18.574Z,10.10
2022-09-30T01:42:35.067Z,10.10
2022-09-30T01:43:45.172Z,10.40
2022-09-30T01:44:49.812Z,11.10
2022-09-30T01:46:01.713Z,10.80
2022-09-30T01:47:34.161Z,10.00
2022-09-30T01:48:49.197Z,10.50
2022-09-30T01:50:15.159Z,10.40
2022-09-30T01:51:35.478Z,10.10
2022-09-30T01:52:48.284Z,10.10
2022-09-30T01:53:58.939Z,10.20
2022-09-30T01:55:11.482Z,9.90
2022-09-30T01:56:30.967Z,10.90
2022-09-30T01:57:45.751Z,12.20
2022-09-30T01:59:18.891Z,11.00
2022-09-30T02:00:20.644Z,10.20
2022-09-30T02:01:38.577Z,10.30
2022-09-30T02:02:53.077Z,10.00
2022-09-30T02:03:59.743Z,10.00
2022-09-30T02:05:13.613Z,10.20
2022-09-30T02:06:21.345Z,11.10
2022-09-30T02:07:35.051Z,10.00
2022-09-30T02:08:43.641Z,9.70
2022-09-30T02:09:54.208Z,10.20
2022-09-30T02:12:05.336Z,10.10
2022-09-30T02:13:35.021Z,10.50
2022-09-30T02:14:42.447Z,10.50
2022-09-30T02:15:51.415Z,10.90
2022-09-30T02:17:14.954Z,9.90
2022-09-30T02:18:24.434Z,10.80
2022-09-30T02:19:34.179Z,10.60
2022-09-30T02:20:41.896Z,9.90
2022-09-30T02:21:50.092Z,10.30
2022-09-30T02:22:59.505Z,10.10
2022-09-30T02:24:06.466Z,10.30
2022-09-30T02:25:11.655Z,10.20
2022-09-30T02:26:21.331Z,10.00
2022-09-30T02:27:31.502Z,10.40
2022-09-30T02:28:38.954Z,10.30
2022-09-30T02:29:45.827Z,10.80
2022-09-30T02:30:51.735Z,12.00
2022-09-30T02:31:56.479Z,11.10
2022-09-30T02:33:10.982Z,10.10
2022-09-30T02:34:18.783Z,10.50
2022-09-30T02:35:31.517Z,10.40
2022-09-30T02:36:44.158Z,10.10
2022-09-30T02:37:52.074Z,10.20
2022-09-30T02:39:04.444Z,10.20
2022-09-30T02:40:09.766Z,10.60
2022-09-30T02:41:18.127Z,12.60
2022-09-30T02:42:26.077Z,11.20
2022-09-30T02:43:29.002Z,10.10
2022-09-30T02:44:31.257Z,10.10
2022-09-30T02:45:58.096Z,9.70
2022-09-30T02:47:10.527Z,10.40
2022-09-30T02:48:23.668Z,9.60
2022-09-30T02:49:31.532Z,10.60
2022-09-30T02:50:48.283Z,11.00
2022-09-30T02:52:22.211Z,10.50
2022-09-30T02:53:56.200Z,10.00
2022-09-30T02:55:16.011Z,10.30
2022-09-30T02:56:52.499Z,10.20
2022-09-30T02:58:08.531Z,10.20
2022-09-30T02:59:10.368Z,10.20
2022-09-30T03:00:13.348Z,9.50
2022-09-30T03:01:16.450Z,10.00
2022-09-30T03:02:20.249Z,10.60
2022-09-30T03:03:48.402Z,10.30
2022-09-30T03:04:50.915Z,9.20
2022-09-30T03:05:52.902Z,9.80
2022-09-30T03:06:54.899Z,9.80
2022-09-30T03:07:57.113Z,9.40
2022-09-30T03:08:58.893Z,10.20
2022-09-30T03:10:00.908Z,9.60
2022-09-30T03:11:03.975Z,10.10
2022-09-30T03:12:32.550Z,9.90
2022-09-30T03:13:52.244Z,9.70
2022-09-30T03:15:24.555Z,9.30
2022-09-30T03:16:44.348Z,11.00
2022-09-30T03:17:57.402Z,9.50
2022-09-30T03:19:20.555Z,9.90
2022-09-30T03:20:34.158Z,10.10
2022-09-30T03:21:47.778Z,10.60
2022-09-30T03:23:11.103Z,10.90
2022-09-30T03:24:36.758Z,10.40
2022-09-30T03:25:58.513Z,10.50
2022-09-30T03:27:26.746Z,11.40
2022-09-30T03:28:34.117Z,10.90
2022-09-30T03:29:46.333Z,9.90
2022-09-30T03:31:03.007Z,10.60
2022-09-30T03:32:27.390Z,10.30
2022-09-30T03:33:54.827Z,10.10
2022-09-30T03:35:18.519Z,10.80
2022-09-30T03:36:29.358Z,10.60
2022-09-30T03:37:44.816Z,10.30
2022-09-30T03:38:57.733Z,10.70
2022-09-30T03:40:09.527Z,9.90
2022-09-30T03:41:22.053Z,10.00
2022-09-30T03:42:28.716Z,10.90
2022-09-30T03:43:43.145Z,11.60
2022-09-30T03:45:01.863Z,10.40
2022-09-30T03:46:29.357Z,10.70
2022-09-30T03:47:40.107Z,9.90
2022-09-30T03:48:44.858Z,11.30
2022-09-30T03:49:50.993Z,10.80
2022-09-30T03:50:53.125Z,10.00
2022-09-30T03:51:58.619Z,10.80
2022-09-30T03:53:01.126Z,10.20
2022-09-30T03:54:07.199Z,10.30
2022-09-30T03:55:10.982Z,10.10
2022-09-30T03:56:12.969Z,10.10
2022-09-30T03:57:14.586Z,9.80
2022-09-30T03:58:18.492Z,10.20
2022-09-30T03:59:27.168Z,10.70
2022-09-30T04:00:29.536Z,10.30
2022-09-30T04:01:31.444Z,10.80
2022-09-30T04:02:35.390Z,9.80
2022-09-30T04:03:37.040Z,10.10
2022-09-30T04:04:41.186Z,10.10
2022-09-30T04:05:43.306Z,10.20
2022-09-30T04:06:45.091Z,10.10
2022-09-30T04:07:46.880Z,9.80
2022-09-30T04:08:49.746Z,10.30
2022-09-30T04:09:51.493Z,10.60
2022-09-30T04:10:53.178Z,11.00
2022-09-30T04:11:55.013Z,10.80
2022-09-30T04:12:57.185Z,10.60
2022-09-30T04:14:00.795Z,10.80
2022-09-30T04:15:02.671Z,10.40
2022-09-30T04:16:06.298Z,10.70
2022-09-30T04:17:08.028Z,10.40
2022-09-30T04:18:09.617Z,10.90
2022-09-30T04:19:11.236Z,10.20
2022-09-30T04:20:12.979Z,11.20
2022-09-30T04:21:15.750Z,11.40
2022-09-30T04:22:17.547Z,10.90
2022-09-30T04:23:19.216Z,10.20
2022-09-30T04:24:22.679Z,10.10
2022-09-30T04:25:25.586Z,10.70
2022-09-30T04:26:27.326Z,11.10
2022-09-30T04:27:29.650Z,10.20
2022-09-30T04:28:31.822Z,10.50
2022-09-30T04:29:33.478Z,10.50
2022-09-30T04:30:37.340Z,11.00
2022-09-30T04:31:39.102Z,10.60
2022-09-30T04:32:47.104Z,11.30
2022-09-30T04:33:50.012Z,11.40
2022-09-30T04:34:53.493Z,10.70
2022-09-30T04:35:57.220Z,10.60
2022-09-30T04:36:58.783Z,11.10
2022-09-30T04:38:00.578Z,10.60
2022-09-30T04:39:03.248Z,10.80
2022-09-30T04:40:05.468Z,10.80
2022-09-30T04:41:10.604Z,11.50
2022-09-30T04:42:12.327Z,10.80
2022-09-30T04:43:24.664Z,10.40
2022-09-30T04:44:26.765Z,10.40
2022-09-30T04:45:29.432Z,11.00
2022-09-30T04:46:36.019Z,10.90
2022-09-30T04:47:37.905Z,10.80
2022-09-30T04:48:39.538Z,11.00
2022-09-30T04:49:41.181Z,10.20
2022-09-30T04:50:42.915Z,10.60
2022-09-30T04:51:45.504Z,10.60
2022-09-30T04:52:47.858Z,11.10
2022-09-30T04:53:49.835Z,11.70
2022-09-30T04:54:51.438Z,11.00
2022-09-30T04:56:00.811Z,11.20
2022-09-30T04:57:02.645Z,11.20
2022-09-30T04:58:05.740Z,10.60
2022-09-30T04:59:07.849Z,10.50
2022-09-30T05:00:10.536Z,11.20
2022-09-30T05:01:14.597Z,12.20
2022-09-30T05:02:16.647Z,11.00
2022-09-30T05:03:19.290Z,13.10
2022-09-30T05:04:21.205Z,11.40
2022-09-30T05:05:23.134Z,11.70
2022-09-30T05:06:41.888Z,12.10
2022-09-30T05:07:43.943Z,11.30
2022-09-30T05:08:46.866Z,11.60
2022-09-30T05:09:50.046Z,11.90
2022-09-30T05:10:57.590Z,12.20
2022-09-30T05:12:02.988Z,12.00
2022-09-30T05:13:05.431Z,10.80
2022-09-30T05:14:24.723Z,11.20
2022-09-30T05:16:29.460Z,11.00
2022-09-30T05:17:31.411Z,11.40
2022-09-30T05:18:33.733Z,12.80
2022-09-30T05:19:35.413Z,11.60
2022-09-30T05:20:36.999Z,11.60
2022-09-30T05:21:38.763Z,11.90
2022-09-30T05:22:40.479Z,11.20
2022-09-30T05:23:49.448Z,12.00
2022-09-30T05:24:52.280Z,11.50
2022-09-30T05:25:54.452Z,11.50
2022-09-30T05:26:56.183Z,11.40
2022-09-30T05:27:58.996Z,11.40
2022-09-30T05:29:00.769Z,11.00
2022-09-30T05:30:03.714Z,11.70
2022-09-30T05:31:05.951Z,11.40
2022-09-30T05:32:07.730Z,11.60
2022-09-30T05:33:10.156Z,11.80
2022-09-30T05:34:11.974Z,11.70
2022-09-30T05:35:13.933Z,11.60
2022-09-30T05:36:15.990Z,11.80
2022-09-30T05:37:17.787Z,10.80
2022-09-30T05:38:19.397Z,11.30
2022-09-30T05:39:21.325Z,11.00
2022-09-30T05:40:23.057Z,10.40
2022-09-30T05:41:24.806Z,10.60
2022-09-30T05:42:26.475Z,11.00
2022-09-30T05:43:28.296Z,10.60
2022-09-30T05:44:30.326Z,10.10
2022-09-30T05:45:33.123Z,10.50
2022-09-30T05:46:35.092Z,10.60
2022-09-30T05:47:36.698Z,10.70
2022-09-30T05:48:38.574Z,10.30
2022-09-30T05:49:41.149Z,10.30
2022-09-30T05:50:49.487Z,10.20
2022-09-30T05:51:51.286Z,11.70
2022-09-30T05:52:52.930Z,10.50
2022-09-30T05:53:54.659Z,11.10
2022-09-30T05:55:00.234Z,12.00
2022-09-30T05:56:02.008Z,10.90
2022-09-30T05:57:03.779Z,11.20
2022-09-30T05:58:05.663Z,11.00
2022-09-30T05:59:07.402Z,11.40
2022-09-30T06:00:10.749Z,10.20
2022-09-30T06:01:15.308Z,11.00
2022-09-30T06:02:18.582Z,10.60
2022-09-30T06:03:20.498Z,11.90
2022-09-30T06:04:22.718Z,11.20
2022-09-30T06:05:25.198Z,11.90
2022-09-30T06:06:27.001Z,11.30
2022-09-30T06:07:28.612Z,11.70
2022-09-30T06:08:30.472Z,11.30
2022-09-30T06:09:32.280Z,10.40
2022-09-30T06:10:35.189Z,11.20
2022-09-30T06:11:36.791Z,10.70
2022-09-30T06:12:39.096Z,11.10
2022-09-30T06:13:41.764Z,10.00
2022-09-30T06:14:43.388Z,10.30
2022-09-30T06:15:58.210Z,10.10
2022-09-30T06:16:59.975Z,10.00
2022-09-30T06:18:01.776Z,10.30
2022-09-30T06:19:03.478Z,9.70
2022-09-30T06:20:05.922Z,10.00
2022-09-30T06:21:11.443Z,10.30
2022-09-30T06:22:12.972Z,10.50
2022-09-30T06:23:14.599Z,9.60
2022-09-30T06:24:16.298Z,10.40
2022-09-30T06:25:18.194Z,9.30
2022-09-30T06:26:20.160Z,9.80
2022-09-30T06:27:21.812Z,9.50
2022-09-30T06:28:24.165Z,10.00
2022-09-30T06:29:25.832Z,8.90
2022-09-30T06:30:31.622Z,9.30
2022-09-30T06:31:36.114Z,10.10
2022-09-30T06:32:37.927Z,9.50
2022-09-30T06:33:39.660Z,9.00
2022-09-30T06:34:41.457Z,9.20
2022-09-30T06:35:43.780Z,9.10
2022-09-30T06:36:45.534Z,9.20
2022-09-30T06:37:50.612Z,9.10
2022-09-30T06:38:53.690Z,8.50
2022-09-30T06:39:55.395Z,8.40
2022-09-30T06:40:59.194Z,8.40
2022-09-30T06:42:01.066Z,7.90
2022-09-30T06:43:03.947Z,8.00
2022-09-30T06:44:06.332Z,8.70
2022-09-30T06:45:09.823Z,8.20
2022-09-30T06:46:18.883Z,8.30
2022-09-30T06:47:25.467Z,8.10
2022-09-30T06:48:37.804Z,8.00
2022-09-30T06:49:49.259Z,8.30
2022-09-30T06:51:01.938Z,8.10
2022-09-30T06:52:04.068Z,8.20
2022-09-30T06:53:07.651Z,8.40
2022-09-30T06:54:10.194Z,8.80
2022-09-30T06:55:11.839Z,8.80
2022-09-30T06:56:14.612Z,8.00
2022-09-30T06:57:21.715Z,8.20
2022-09-30T06:58:24.094Z,7.90
2022-09-30T06:59:26.504Z,8.30
2022-09-30T07:00:28.366Z,8.10
2022-09-30T07:01:30.181Z,8.20
2022-09-30T07:02:33.868Z,7.70
2022-09-30T07:03:35.868Z,7.90
2022-09-30T07:04:37.691Z,8.10
2022-09-30T07:05:39.375Z,7.80
2022-09-30T07:06:41.241Z,8.00
2022-09-30T07:07:43.306Z,8.10
2022-09-30T07:08:45.156Z,7.90
2022-09-30T07:09:47.040Z,8.90
2022-09-30T07:10:48.781Z,8.20
2022-09-30T07:11:50.367Z,8.20
2022-09-30T07:12:52.825Z,9.00
2022-09-30T07:13:54.858Z,9.00
2022-09-30T07:14:56.599Z,9.00
2022-09-30T07:15:58.447Z,8.60
2022-09-30T07:17:03.454Z,8.00
2022-09-30T07:18:06.078Z,8.20
2022-09-30T07:19:09.465Z,8.60
2022-09-30T07:20:11.159Z,8.50
2022-09-30T07:21:15.284Z,8.10
2022-09-30T07:22:26.877Z,8.00
2022-09-30T07:23:28.698Z,7.90
2022-09-30T07:24:30.978Z,7.80
2022-09-30T07:25:32.547Z,7.00
2022-09-30T07:26:34.239Z,7.60
2022-09-30T07:27:36.396Z,7.20
2022-09-30T07:28:38.865Z,7.40
2022-09-30T07:30:07.188Z,7.70
2022-09-30T07:31:31.396Z,7.70
2022-09-30T07:32:29.525Z,7.30
2022-09-30T07:33:32.059Z,6.90
2022-09-30T07:34:34.777Z,7.00
2022-09-30T07:35:37.526Z,7.50
2022-09-30T07:36:41.140Z,6.30
2022-09-30T07:37:43.127Z,7.20
2022-09-30T07:38:50.805Z,6.90
2022-09-30T07:39:53.247Z,7.20
2022-09-30T07:41:01.202Z,7.20
2022-09-30T07:42:03.577Z,7.40
2022-09-30T07:43:05.189Z,7.90
2022-09-30T07:44:11.307Z,7.20
2022-09-30T07:45:16.322Z,7.90
2022-09-30T07:46:23.795Z,8.30
2022-09-30T07:47:25.464Z,8.40
2022-09-30T07:48:50.483Z,8.30
2022-09-30T07:49:52.199Z,8.50
2022-09-30T07:50:53.817Z,8.50
2022-09-30T07:51:58.045Z,8.30
2022-09-30T07:52:59.764Z,8.80
2022-09-30T07:54:08.129Z,8.90
2022-09-30T07:55:09.783Z,9.30
2022-09-30T07:56:12.676Z,8.20
2022-09-30T07:57:14.571Z,7.90
2022-09-30T07:58:16.250Z,8.60
2022-09-30T07:59:19.317Z,9.40
2022-09-30T08:01:43.962Z,8.20
2022-09-30T08:02:45.815Z,9.30
2022-09-30T08:03:47.653Z,8.50
2022-09-30T08:04:49.417Z,8.60
2022-09-30T08:05:51.162Z,8.60
2022-09-30T08:06:56.332Z,9.30
2022-09-30T08:07:58.184Z,9.00
2022-09-30T08:08:59.872Z,8.40
2022-09-30T08:10:01.610Z,9.10
2022-09-30T08:11:04.993Z,10.70
2022-09-30T08:12:07.162Z,9.30
2022-09-30T08:13:09.952Z,9.70
2022-09-30T08:14:23.943Z,10.10
2022-09-30T08:15:26.039Z,10.00
2022-09-30T08:16:28.108Z,10.30
2022-09-30T08:17:29.783Z,9.70
2022-09-30T08:18:31.631Z,10.10
2022-09-30T08:19:33.400Z,10.00
2022-09-30T08:20:35.080Z,10.30
2022-09-30T08:21:36.727Z,9.10
2022-09-30T08:22:38.407Z,8.60
2022-09-30T08:23:40.808Z,9.20
2022-09-30T08:24:42.419Z,9.10
2022-09-30T08:25:44.172Z,9.50
2022-09-30T08:26:46.030Z,8.90
2022-09-30T08:27:48.108Z,9.40
2022-09-30T08:28:50.464Z,9.60
2022-09-30T08:29:57.393Z,9.10
2022-09-30T08:31:05.336Z,9.00
2022-09-30T08:32:07.274Z,9.40
2022-09-30T08:33:09.308Z,9.50
2022-09-30T08:34:11.035Z,9.80
2022-09-30T08:35:12.802Z,10.00
2022-09-30T08:36:17.971Z,9.70
2022-09-30T08:37:19.631Z,8.60
2022-09-30T08:38:21.345Z,8.50
2022-09-30T08:39:23.278Z,8.20
2022-09-30T08:40:31.586Z,8.70
2022-09-30T08:41:38.848Z,8.30
2022-09-30T08:42:56.733Z,8.90
2022-09-30T08:44:05.171Z,8.10
2022-09-30T08:45:43.572Z,8.40
2022-09-30T08:47:13.023Z,7.20
2022-09-30T08:48:46.756Z,6.60
2022-09-30T08:50:00.796Z,7.20
2022-09-30T08:51:24.332Z,6.70
2022-09-30T08:52:45.017Z,6.60
2022-09-30T08:53:50.818Z,6.70
2022-09-30T08:54:55.295Z,6.70
2022-09-30T08:56:01.895Z,6.30
2022-09-30T08:57:05.242Z,6.60
2022-09-30T08:58:16.182Z,6.30
2022-09-30T08:59:40.145Z,6.30
2022-09-30T09:00:42.703Z,6.40
2022-09-30T09:01:48.668Z,6.00
2022-09-30T09:02:56.652Z,6.90
2022-09-30T09:03:59.987Z,7.10
2022-09-30T09:05:05.753Z,7.10
2022-09-30T09:06:28.883Z,6.60
2022-09-30T09:07:44.577Z,6.40
2022-09-30T09:09:19.795Z,6.10
2022-09-30T09:10:40.424Z,6.10
2022-09-30T09:11:48.714Z,7.20
2022-09-30T09:13:02.190Z,6.30
2022-09-30T09:14:16.584Z,6.50
2022-09-30T09:15:27.040Z,6.10
2022-09-30T09:17:58.595Z,6.20
2022-09-30T09:19:14.879Z,6.10
2022-09-30T09:20:21.231Z,6.40
2022-09-30T09:21:38.263Z,6.40
2022-09-30T09:22:41.446Z,5.60
2022-09-30T09:23:43.843Z,6.70
2022-09-30T09:24:50.044Z,6.50
2022-09-30T09:25:53.991Z,6.40
2022-09-30T09:26:58.423Z,6.00
2022-09-30T09:28:03.228Z,6.00
2022-09-30T09:29:55.908Z,5.80
2022-09-30T09:30:59.887Z,5.30
2022-09-30T09:32:02.956Z,6.10
2022-09-30T09:33:25.155Z,6.70
2022-09-30T09:34:30.044Z,5.90
2022-09-30T09:35:49.327Z,5.80
2022-09-30T09:37:57.878Z,5.80
2022-09-30T09:39:08.822Z,5.20
2022-09-30T09:40:34.276Z,5.10
2022-09-30T09:41:36.512Z,4.80
2022-09-30T09:43:05.704Z,4.70
2022-09-30T09:44:18.637Z,4.10
2022-09-30T09:45:38.270Z,4.10
2022-09-30T09:46:43.092Z,4.40
2022-09-30T09:47:50.743Z,5.10
2022-09-30T09:49:24.420Z,4.80
2022-09-30T09:50:44.623Z,4.80
2022-09-30T09:52:12.747Z,4.80
2022-09-30T09:53:30.326Z,4.50
2022-09-30T09:54:37.011Z,4.70
2022-09-30T09:55:38.701Z,4.20
2022-09-30T09:56:40.289Z,4.10
2022-09-30T09:57:42.048Z,4.20
2022-09-30T09:59:05.282Z,3.80
2022-09-30T10:00:29.679Z,3.90
2022-09-30T10:01:33.506Z,3.90
2022-09-30T10:02:35.393Z,3.50
2022-09-30T10:03:37.519Z,4.10
2022-09-30T10:04:50.206Z,4.00
2022-09-30T10:06:01.338Z,3.60
2022-09-30T10:07:14.468Z,3.60
2022-09-30T10:08:21.485Z,3.40
2022-09-30T10:09:35.655Z,3.40
2022-09-30T10:10:45.281Z,3.30
2022-09-30T10:11:47.016Z,3.40
2022-09-30T10:12:48.928Z,3.00
2022-09-30T10:13:55.211Z,3.20
2022-09-30T10:15:13.742Z,3.00
2022-09-30T10:16:30.851Z,2.80
2022-09-30T10:17:36.544Z,3.10
2022-09-30T10:18:39.379Z,3.60
2022-09-30T10:19:51.449Z,3.10
2022-09-30T10:20:56.397Z,2.80
2022-09-30T10:22:07.080Z,2.80
2022-09-30T10:23:28.612Z,3.80
2022-09-30T10:24:31.177Z,2.90
2022-09-30T10:25:32.877Z,3.20
2022-09-30T10:26:47.724Z,3.90
2022-09-30T10:27:54.767Z,2.80
2022-09-30T10:29:03.388Z,3.30
2022-09-30T10:30:05.586Z,3.30
2022-09-30T10:31:16.715Z,3.10
2022-09-30T10:32:20.213Z,3.10
2022-09-30T10:33:27.393Z,3.00
2022-09-30T10:34:41.138Z,2.90
2022-09-30T10:35:55.347Z,2.60
2022-09-30T10:37:01.398Z,2.70
2022-09-30T10:38:03.446Z,2.80
2022-09-30T10:39:07.788Z,2.50
2022-09-30T10:40:16.932Z,2.70
2022-09-30T10:41:24.958Z,2.50
2022-09-30T10:42:30.621Z,2.40
2022-09-30T10:43:42.261Z,2.70
2022-09-30T10:44:46.912Z,2.90
2022-09-30T10:46:07.285Z,2.90
2022-09-30T10:47:18.877Z,3.30
2022-09-30T10:48:23.830Z,2.80
2022-09-30T10:49:36.354Z,3.00
2022-09-30T10:50:38.182Z,2.70
2022-09-30T10:51:40.268Z,2.80
2022-09-30T10:53:00.023Z,2.50
2022-09-30T10:54:04.048Z,2.60
2022-09-30T10:55:18.833Z,3.20
2022-09-30T10:56:54.017Z,3.10
2022-09-30T10:58:03.169Z,3.10
2022-09-30T10:59:15.965Z,3.50
2022-09-30T11:00:21.332Z,3.10
2022-09-30T11:01:25.749Z,7.50
2022-09-30T11:02:55.759Z,5.80
2022-09-30T11:04:23.675Z,3.70
2022-09-30T11:05:30.137Z,3.30
2022-09-30T11:06:36.571Z,3.10
2022-09-30T11:07:59.921Z,3.30
2022-09-30T11:09:08.759Z,3.10
2022-09-30T11:10:38.431Z,3.10
2022-09-30T11:12:25.148Z,3.90
2022-09-30T11:13:54.985Z,4.20
2022-09-30T11:15:12.540Z,5.20
2022-09-30T11:16:49.664Z,4.80
2022-09-30T11:18:04.929Z,5.30
2022-09-30T11:19:23.376Z,5.30
2022-09-30T11:20:30.007Z,5.00
2022-09-30T11:21:45.661Z,5.40
2022-09-30T11:23:16.078Z,5.10
2022-09-30T11:25:40.136Z,4.70
2022-09-30T11:26:55.187Z,5.40
2022-09-30T11:28:14.966Z,5.40
2022-09-30T11:29:31.395Z,4.70
2022-09-30T11:30:40.160Z,4.70
2022-09-30T11:31:53.918Z,4.60
2022-09-30T11:32:58.569Z,4.80
2022-09-30T11:34:20.404Z,4.70
2022-09-30T11:35:52.628Z,5.10
2022-09-30T11:37:26.681Z,5.80
2022-09-30T11:38:49.839Z,5.10
2022-09-30T11:40:16.637Z,4.80
2022-09-30T11:41:40.420Z,4.90
2022-09-30T11:43:14.355Z,4.80
2022-09-30T11:44:36.321Z,4.80
2022-09-30T11:45:37.973Z,4.40
2022-09-30T11:46:48.510Z,4.80
2022-09-30T11:48:33.226Z,4.80
2022-09-30T11:49:56.319Z,4.40
2022-09-30T11:51:10.233Z,4.30
2022-09-30T11:52:19.022Z,4.80
2022-09-30T11:53:53.383Z,3.90
2022-09-30T11:55:20.436Z,3.80
2022-09-30T11:56:55.801Z,3.80
2022-09-30T11:58:28.482Z,3.50
2022-09-30T11:59:53.674Z,3.70
2022-09-30T12:01:03.810Z,3.50
2022-09-30T12:02:20.640Z,3.50
2022-09-30T12:03:29.989Z,3.50
2022-09-30T12:04:43.696Z,3.00
2022-09-30T12:05:54.515Z,3.40
2022-09-30T12:07:03.684Z,3.60
2022-09-30T12:08:14.570Z,3.50
2022-09-30T12:09:27.136Z,3.40
2022-09-30T12:10:43.633Z,3.30
2022-09-30T12:12:06.385Z,2.60
2022-09-30T12:13:17.914Z,2.10
2022-09-30T12:14:28.865Z,2.30
2022-09-30T12:15:32.416Z,2.10
2022-09-30T12:16:36.506Z,1.90
2022-09-30T12:17:48.764Z,1.90
2022-09-30T12:19:01.957Z,2.00
2022-09-30T12:20:28.267Z,2.00
2022-09-30T12:21:39.814Z,2.00
2022-09-30T12:22:47.262Z,2.00
2022-09-30T12:23:58.843Z,1.90
2022-09-30T12:25:11.321Z,2.00
2022-09-30T12:26:14.950Z,2.20
2022-09-30T12:27:35.242Z,2.10
2022-09-30T12:29:32.079Z,2.00
2022-09-30T12:30:35.069Z,2.00
2022-09-30T12:31:39.611Z,1.70
2022-09-30T12:33:03.268Z,1.90
2022-09-30T12:34:26.513Z,2.00
2022-09-30T12:35:56.172Z,2.00
2022-09-30T12:37:06.611Z,1.80
2022-09-30T12:38:24.413Z,2.40
2022-09-30T12:39:43.912Z,2.00
2022-09-30T12:41:23.630Z,2.20
2022-09-30T12:42:36.957Z,2.10
2022-09-30T12:43:38.680Z,1.90
2022-09-30T12:44:58.220Z,1.90
2022-09-30T12:46:20.166Z,2.30
2022-09-30T12:47:33.878Z,2.20
2022-09-30T12:48:41.364Z,2.20
2022-09-30T12:49:44.271Z,2.10
2022-09-30T12:50:52.414Z,2.00
2022-09-30T12:52:02.819Z,2.40
2022-09-30T12:54:38.619Z,2.40
2022-09-30T12:55:41.791Z,2.50
2022-09-30T12:56:49.030Z,2.80
2022-09-30T12:57:52.262Z,2.60
2022-09-30T12:58:54.574Z,2.60
2022-09-30T13:00:20.588Z,2.20
2022-09-30T13:01:25.921Z,2.40
2022-09-30T13:02:35.804Z,2.50
2022-09-30T13:04:08.630Z,2.40
2022-09-30T13:05:39.626Z,2.40
2022-09-30T13:06:44.338Z,2.50
2022-09-30T13:08:29.562Z,2.10
2022-09-30T13:09:35.187Z,2.20
2022-09-30T13:10:36.984Z,2.40
2022-09-30T13:11:39.745Z,2.90
2022-09-30T13:12:44.426Z,3.10
2022-09-30T13:14:25.657Z,3.60
2022-09-30T13:15:27.736Z,3.70
2022-09-30T13:17:17.269Z,3.50
2022-09-30T13:18:18.990Z,3.80
2022-09-30T13:19:20.890Z,2.90
2022-09-30T13:20:54.385Z,3.10
2022-09-30T13:22:24.038Z,3.30
2022-09-30T13:23:40.279Z,2.80
2022-09-30T13:24:59.893Z,3.30
2022-09-30T13:26:02.474Z,3.00
2022-09-30T13:27:12.870Z,3.10
2022-09-30T13:28:14.553Z,2.90
2022-09-30T13:29:16.443Z,3.10
2022-09-30T13:30:18.253Z,3.50
2022-09-30T13:31:24.903Z,3.30
2022-09-30T13:32:37.230Z,4.70
2022-09-30T13:33:45.313Z,3.30
2022-09-30T13:34:53.510Z,7.00
2022-09-30T13:36:07.196Z,3.20
2022-09-30T13:37:37.257Z,2.90
2022-09-30T13:38:39.934Z,3.10
2022-09-30T13:39:48.529Z,3.40
2022-09-30T13:41:02.348Z,3.80
2022-09-30T13:42:19.856Z,3.30
2022-09-30T13:43:29.427Z,3.00
2022-09-30T13:44:35.517Z,2.50
2022-09-30T13:45:38.971Z,2.90
2022-09-30T13:46:49.299Z,2.80
2022-09-30T13:48:10.366Z,2.60
2022-09-30T13:49:15.938Z,3.90
2022-09-30T13:50:38.147Z,3.00
2022-09-30T13:51:41.181Z,2.90
2022-09-30T13:52:47.535Z,3.00
2022-09-30T13:53:53.546Z,3.40
2022-09-30T13:54:58.140Z,3.00
2022-09-30T13:56:07.705Z,2.70
2022-09-30T13:57:18.218Z,2.80
2022-09-30T13:58:33.358Z,2.90
2022-09-30T13:59:47.308Z,3.10
2022-09-30T14:01:05.100Z,2.50
2022-09-30T14:02:48.187Z,2.90
2022-09-30T14:03:56.022Z,2.90
2022-09-30T14:05:14.493Z,2.80
2022-09-30T14:06:58.052Z,2.90
2022-09-30T14:08:17.456Z,2.80
2022-09-30T14:09:38.278Z,2.60
2022-09-30T14:10:58.146Z,3.10
2022-09-30T14:13:07.467Z,3.00
2022-09-30T14:14:39.831Z,3.10
2022-09-30T14:15:46.397Z,2.80
2022-09-30T14:16:56.235Z,2.80
2022-09-30T14:18:09.627Z,2.70
2022-09-30T14:19:29.393Z,3.20
2022-09-30T14:20:45.682Z,3.10
2022-09-30T14:22:01.804Z,2.90
2022-09-30T14:23:04.549Z,3.10
2022-09-30T14:24:17.580Z,3.50
2022-09-30T14:25:23.327Z,3.50
2022-09-30T14:26:37.345Z,3.30
2022-09-30T14:27:41.906Z,3.50
2022-09-30T14:28:54.309Z,2.90
2022-09-30T14:30:16.981Z,2.90
2022-09-30T14:31:18.841Z,3.20
2022-09-30T14:32:28.441Z,3.10
2022-09-30T14:33:31.028Z,2.60
2022-09-30T14:34:33.285Z,3.00
2022-09-30T14:35:44.024Z,3.10
2022-09-30T14:36:46.264Z,3.00
2022-09-30T14:37:55.718Z,3.10
2022-09-30T14:39:00.671Z,3.10
2022-09-30T14:40:03.483Z,3.50
2022-09-30T14:41:13.707Z,3.10
2022-09-30T14:42:30.452Z,2.90
2022-09-30T14:43:37.615Z,3.10
2022-09-30T14:44:42.610Z,3.70
2022-09-30T14:45:50.683Z,3.40
2022-09-30T14:46:59.504Z,3.50
2022-09-30T14:48:07.261Z,3.20
2022-09-30T14:49:14.992Z,3.30
2022-09-30T14:50:22.376Z,4.40
2022-09-30T14:51:26.754Z,7.40
2022-09-30T14:52:38.526Z,4.70
2022-09-30T14:53:51.796Z,4.30
2022-09-30T14:54:53.955Z,3.70
2022-09-30T14:55:56.886Z,2.90
2022-09-30T14:57:01.639Z,2.80
2022-09-30T14:58:40.082Z,2.90
2022-09-30T14:59:43.935Z,2.60
2022-09-30T15:01:10.610Z,3.40
2022-09-30T15:02:17.868Z,3.10
2022-09-30T15:03:19.572Z,2.90
2022-09-30T15:04:28.088Z,3.00
2022-09-30T15:05:29.747Z,2.70
2022-09-30T15:06:35.292Z,2.60
2022-09-30T15:07:39.920Z,2.80
2022-09-30T15:08:41.646Z,2.90
2022-09-30T15:09:45.827Z,2.90
2022-09-30T15:10:49.373Z,2.90
2022-09-30T15:11:51.741Z,3.00
2022-09-30T15:12:55.181Z,3.20
2022-09-30T15:14:02.339Z,3.40
2022-09-30T15:15:22.161Z,3.20
2022-09-30T15:16:30.108Z,3.40
2022-09-30T15:17:36.568Z,3.30
2022-09-30T15:18:45.835Z,3.20
2022-09-30T15:19:49.555Z,3.50
2022-09-30T15:20:58.312Z,3.30
2022-09-30T15:22:04.048Z,3.40
2022-09-30T15:23:15.200Z,3.70